Time;durP1;ratioP1;P1;durP2;ratioP2;P2;SDS_P1;SDS_P2;PMS_P1;PMS_P2;Temp;Humidity;BMP_temperature;BMP_pressure;BME280_temperature;BME280_humidity;BME280_pressure;Samples;Min_cycle;Max_cycle;Signal;HPM_P1;HPM_P2
2021/04/24 00:02:34;;;;;;;;;;;;;;;12.53;61.73;101483.81;4944547;29;19914;-81
2021/04/24 00:05:18;;;;;;;;;;;;;;;12.56;62.46;101477.72;4942748;29;19915;-81
2021/04/24 00:08:04;;;;;;;;;;;;;;;12.53;61.76;101476.44;4927922;29;20302;-81
2021/04/24 00:10:49;;;;;;;;;;;;;;;12.47;61.85;101474.13;4945422;28;19915;-81
2021/04/24 00:13:34;;;;;;;;;;;;;;;12.50;61.66;101473.50;4941445;29;20375;-81
2021/04/24 00:16:20;;;;;;;;;;;;;;;12.47;61.86;101468.69;4927218;29;20383;-82
2021/04/24 00:19:05;;;;;;;;;;;;;;;12.38;62.14;101476.81;4944075;29;19915;-81
2021/04/24 00:21:50;;;;;;;;;;;;;;;12.24;62.58;101473.31;4943878;29;19919;-81
2021/04/24 00:24:34;;;;;;;;;;;;;;;12.23;62.88;101471.69;4942526;29;19915;-81
2021/04/24 00:27:20;;;;;;;;;;;;;;;12.13;63.19;101477.38;4946487;29;19915;-81
2021/04/24 00:30:06;;;;;;;;;;;;;;;12.17;63.10;101478.38;4943262;29;19914;-81
2021/04/24 00:32:51;;;;;;;;;;;;;;;12.18;62.88;101480.81;4941153;29;19915;-81
2021/04/24 00:35:36;;;;;;;;;;;;;;;12.12;63.15;101471.13;4931949;29;20402;-81
2021/04/24 00:38:20;;;;;;;;;;;;;;;12.15;63.32;101466.97;4942451;29;19915;-81
2021/04/24 00:41:05;;;;;;;;;;;;;;;12.08;63.38;101472.84;4942596;29;19915;-81
2021/04/24 00:43:50;;;;;;;;;;;;;;;12.11;63.27;101463.25;4926880;29;19915;-81
2021/04/24 00:46:35;;;;;;;;;;;;;;;11.91;64.04;101459.84;4943745;29;19915;-81
2021/04/24 00:49:19;;;;;;;;;;;;;;;12.00;64.71;101460.75;4941209;29;20392;-81
2021/04/24 00:52:04;;;;;;;;;;;;;;;12.09;63.65;101454.56;4939159;29;19915;-81
2021/04/24 00:54:49;;;;;;;;;;;;;;;11.93;64.34;101462.28;4924695;29;19919;-81
2021/04/24 00:57:34;;;;;;;;;;;;;;;11.94;64.30;101461.16;4925045;29;19915;-81
2021/04/24 01:00:23;;;;;;;;;;;;;;;11.84;64.83;101453.19;4933690;29;19919;-81
2021/04/24 01:03:08;;;;;;;;;;;;;;;11.91;64.37;101451.69;4944737;29;19914;-81
2021/04/24 01:05:52;;;;;;;;;;;;;;;11.99;64.52;101456.41;4928662;29;19918;-80
2021/04/24 01:08:37;;;;;;;;;;;;;;;11.88;64.83;101451.50;4943484;29;19923;-81
2021/04/24 01:11:21;;;;;;;;;;;;;;;11.84;64.40;101453.19;4952415;28;19915;-81
2021/04/24 01:14:06;;;;;;;;;;;;;;;11.69;65.02;101457.03;4942651;29;20302;-81
2021/04/24 01:16:51;;;;;;;;;;;;;;;11.63;65.45;101452.78;4941809;29;19919;-81
2021/04/24 01:19:36;;;;;;;;;;;;;;;11.61;65.50;101454.22;4946338;29;20382;-83
2021/04/24 01:22:20;;;;;;;;;;;;;;;11.78;65.02;101457.16;4943148;29;19915;-82
2021/04/24 01:25:10;;;;;;;;;;;;;;;11.71;65.26;101454.81;4940844;29;19915;-81
2021/04/24 01:27:56;;;;;;;;;;;;;;;11.71;65.15;101454.81;4945720;29;19915;-81
2021/04/24 01:30:42;;;;;;;;;;;;;;;11.67;65.46;101453.81;4943343;28;19915;-81
2021/04/24 01:33:27;;;;;;;;;;;;;;;11.69;65.18;101451.56;4943156;29;20395;-80
2021/04/24 01:36:12;;;;;;;;;;;;;;;11.79;64.91;101451.38;4946566;29;19919;-80
2021/04/24 01:38:57;;;;;;;;;;;;;;;11.80;64.85;101453.00;4943575;29;19915;-81
2021/04/24 01:41:42;;;;;;;;;;;;;;;11.72;65.25;101447.44;4942545;29;19918;-80
2021/04/24 01:44:27;;;;;;;;;;;;;;;11.67;65.04;101453.00;4948208;29;19915;-80
2021/04/24 01:47:11;;;;;;;;;;;;;;;11.71;65.18;101449.34;4946349;29;19915;-80
2021/04/24 01:49:56;;;;;;;;;;;;;;;11.61;65.38;101451.47;4942826;29;20042;-80
2021/04/24 01:52:42;;;;;;;;;;;;;;;11.54;65.58;101444.53;4946163;29;19914;-80
2021/04/24 01:55:31;;;;;;;;;;;;;;;11.53;66.10;101447.53;4943826;29;19918;-80
2021/04/24 01:58:17;;;;;;;;;;;;;;;11.51;65.95;101456.03;4942591;29;19915;-81
2021/04/24 02:01:04;;;;;;;;;;;;;;;11.40;66.18;101448.38;4934139;29;19919;-81
2021/04/24 02:03:48;;;;;;;;;;;;;;;11.34;66.35;101442.22;4943572;29;19915;-80
2021/04/24 02:06:33;;;;;;;;;;;;;;;11.35;66.23;101445.75;4944701;29;20136;-80
2021/04/24 02:09:19;;;;;;;;;;;;;;;11.32;66.46;101439.00;4942760;29;19915;-80
2021/04/24 02:12:05;;;;;;;;;;;;;;;11.35;66.15;101437.56;4946859;29;19914;-80
2021/04/24 02:14:51;;;;;;;;;;;;;;;11.38;66.43;101436.94;4940808;29;19914;-81
2021/04/24 02:17:35;;;;;;;;;;;;;;;11.33;66.45;101435.13;4943145;29;20303;-80
2021/04/24 02:20:20;;;;;;;;;;;;;;;11.31;66.52;101428.41;4942392;29;19914;-80
2021/04/24 02:23:08;;;;;;;;;;;;;;;11.27;66.94;101430.13;4942671;29;19915;-80
2021/04/24 02:25:57;;;;;;;;;;;;;;;11.19;67.12;101433.53;4944751;29;20303;-81
2021/04/24 02:28:42;;;;;;;;;;;;;;;11.19;67.06;101433.53;4951987;29;19918;-81
2021/04/24 02:31:28;;;;;;;;;;;;;;;11.04;67.96;101435.44;4943179;29;19915;-81
2021/04/24 02:34:13;;;;;;;;;;;;;;;11.11;68.09;101435.84;4945300;29;19915;-81
2021/04/24 02:36:57;;;;;;;;;;;;;;;11.22;68.04;101430.22;4943535;29;19918;-80
2021/04/24 02:39:44;;;;;;;;;;;;;;;11.14;67.06;101421.63;4940361;29;19918;-80
2021/04/24 02:42:28;;;;;;;;;;;;;;;11.12;66.79;101421.09;4944226;29;19915;-81
2021/04/24 02:45:13;;;;;;;;;;;;;;;11.08;66.97;101425.53;4942657;29;20370;-80
2021/04/24 02:47:58;;;;;;;;;;;;;;;11.05;66.98;101425.34;4940301;29;20339;-80
2021/04/24 02:50:43;;;;;;;;;;;;;;;11.11;66.72;101424.97;4943684;29;19919;-81
2021/04/24 02:53:28;;;;;;;;;;;;;;;11.13;66.84;101422.72;4933977;29;19915;-80
2021/04/24 02:56:12;;;;;;;;;;;;;;;11.05;66.85;101425.34;4921479;29;19923;-80
2021/04/24 02:58:56;;;;;;;;;;;;;;;11.11;67.07;101419.53;4925861;29;19914;-81
2021/04/24 03:01:42;;;;;;;;;;;;;;;11.05;67.03;101420.72;4928709;29;19919;-80
2021/04/24 03:04:27;;;;;;;;;;;;;;;10.99;67.01;101416.47;4941564;29;19914;-81
2021/04/24 03:07:12;;;;;;;;;;;;;;;11.00;67.17;101417.28;4937939;29;20462;-81
2021/04/24 03:09:56;;;;;;;;;;;;;;;10.91;67.80;101411.75;4941253;29;19922;-80
2021/04/24 03:12:40;;;;;;;;;;;;;;;10.84;67.77;101418.66;4941558;29;19915;-80
2021/04/24 03:15:25;;;;;;;;;;;;;;;10.87;67.62;101412.66;4938560;29;19919;-80
2021/04/24 03:18:10;;;;;;;;;;;;;;;10.90;67.21;101423.72;4942175;29;19918;-80
2021/04/24 03:20:54;;;;;;;;;;;;;;;10.88;67.80;101420.47;4941311;29;19914;-81
2021/04/24 03:23:38;;;;;;;;;;;;;;;10.92;67.74;101416.06;4925367;29;19922;-80
2021/04/24 03:26:23;;;;;;;;;;;;;;;10.92;67.48;101415.28;4944565;29;19918;-80
2021/04/24 03:29:08;;;;;;;;;;;;;;;10.92;67.87;101410.59;4968383;23;19922;-81
2021/04/24 03:31:52;;;;;;;;;;;;;;;10.95;67.53;101414.66;4956564;28;20551;-82
2021/04/24 03:34:36;;;;;;;;;;;;;;;10.90;67.72;101412.84;4944010;29;19953;-82
2021/04/24 03:37:21;;;;;;;;;;;;;;;10.88;67.84;101417.75;4964280;28;19918;-82
2021/04/24 03:40:06;;;;;;;;;;;;;;;10.88;67.84;101419.66;4944083;28;19914;-82
2021/04/24 03:42:51;;;;;;;;;;;;;;;10.88;68.05;101417.75;4955590;28;19918;-82
2021/04/24 03:45:36;;;;;;;;;;;;;;;10.92;67.84;101415.28;4945497;28;19919;-83
2021/04/24 03:48:20;;;;;;;;;;;;;;;10.93;67.80;101414.94;4959220;28;19914;-83
2021/04/24 03:51:05;;;;;;;;;;;;;;;11.02;68.06;101426.75;4963441;28;19915;-82
2021/04/24 03:53:50;;;;;;;;;;;;;;;11.12;67.53;101429.28;4959986;28;19915;-82
2021/04/24 03:56:34;;;;;;;;;;;;;;;10.79;68.84;101427.72;4944513;29;19918;-82
2021/04/24 03:59:19;;;;;;;;;;;;;;;10.76;68.41;101420.19;4941779;29;19914;-83
2021/04/24 04:02:04;;;;;;;;;;;;;;;10.83;68.24;101423.28;4938037;28;20294;-82
2021/04/24 04:04:48;;;;;;;;;;;;;;;11.03;67.95;101431.09;4959215;28;19915;-82
2021/04/24 04:07:33;;;;;;;;;;;;;;;11.01;67.79;101436.03;4942726;29;20314;-80
2021/04/24 04:10:18;;;;;;;;;;;;;;;10.79;68.31;101432.34;4946493;28;19914;-81
2021/04/24 04:13:04;;;;;;;;;;;;;;;10.92;69.15;101432.38;4940807;29;19919;-82
2021/04/24 04:15:48;;;;;;;;;;;;;;;11.07;68.57;101437.53;4937360;29;20315;-82
2021/04/24 04:18:36;;;;;;;;;;;;;;;10.88;67.79;101450.41;4938681;29;20325;-82
2021/04/24 04:21:21;;;;;;;;;;;;;;;10.82;67.85;101443.44;4944983;29;19914;-81
2021/04/24 04:24:06;;;;;;;;;;;;;;;10.96;67.78;101438.84;4937799;28;19915;-82
2021/04/24 04:26:51;;;;;;;;;;;;;;;10.80;67.65;101440.22;4954006;28;19914;-82
2021/04/24 04:29:36;;;;;;;;;;;;;;;10.68;68.28;101437.16;4943268;29;19914;-82
2021/04/24 04:32:20;;;;;;;;;;;;;;;10.75;68.33;101442.22;4957628;28;19914;-82
2021/04/24 04:35:07;;;;;;;;;;;;;;;10.64;67.76;101449.75;4941749;29;19918;-81
2021/04/24 04:37:53;;;;;;;;;;;;;;;10.68;68.08;101439.88;4943767;28;19915;-82
2021/04/24 04:40:38;;;;;;;;;;;;;;;10.82;67.77;101431.78;4943025;29;19914;-82
2021/04/24 04:43:24;;;;;;;;;;;;;;;10.84;67.56;101443.97;4941447;29;19922;-81
2021/04/24 04:46:09;;;;;;;;;;;;;;;10.87;67.55;101440.63;4945723;29;20484;-81
2021/04/24 04:48:53;;;;;;;;;;;;;;;10.89;67.61;101443.88;4942557;29;19918;-80
2021/04/24 04:51:38;;;;;;;;;;;;;;;11.08;67.14;101447.31;4956050;28;19914;-82
2021/04/24 04:54:23;;;;;;;;;;;;;;;11.15;65.91;101446.94;4945063;29;19914;-82
2021/04/24 04:57:07;;;;;;;;;;;;;;;10.93;66.78;101452.22;4942731;28;19922;-82
2021/04/24 04:59:52;;;;;;;;;;;;;;;10.89;67.41;101453.94;4954953;28;19914;-82
2021/04/24 05:02:37;;;;;;;;;;;;;;;11.11;66.81;101457.63;4960173;28;19915;-82
2021/04/24 05:05:22;;;;;;;;;;;;;;;11.03;67.23;101461.03;4942362;29;19914;-82
2021/04/24 05:08:06;;;;;;;;;;;;;;;11.41;66.29;101460.88;4941645;29;19914;-81
2021/04/24 05:10:51;;;;;;;;;;;;;;;11.35;65.88;101465.59;4960494;28;19914;-82
2021/04/24 05:13:36;;;;;;;;;;;;;;;11.57;66.25;101467.63;4943979;29;20382;-82
2021/04/24 05:16:21;;;;;;;;;;;;;;;11.74;65.59;101459.66;4941825;29;19918;-82
2021/04/24 05:19:07;;;;;;;;;;;;;;;11.66;65.32;101463.09;4943674;29;19914;-81
2021/04/24 05:21:52;;;;;;;;;;;;;;;11.83;64.56;101463.31;4946965;29;19922;-80
2021/04/24 05:24:36;;;;;;;;;;;;;;;12.13;63.92;101469.19;4940408;28;19914;-82
2021/04/24 05:27:21;;;;;;;;;;;;;;;12.23;63.83;101466.25;4943111;28;19914;-81
2021/04/24 05:30:05;;;;;;;;;;;;;;;12.37;63.52;101473.25;4939334;28;19914;-81
2021/04/24 05:32:50;;;;;;;;;;;;;;;12.58;62.65;101476.31;4937053;29;19914;-81
2021/04/24 05:35:35;;;;;;;;;;;;;;;12.67;62.45;101474.44;4943809;28;19935;-81
2021/04/24 05:38:20;;;;;;;;;;;;;;;12.84;62.01;101471.84;4947667;28;19914;-78
2021/04/24 05:41:05;;;;;;;;;;;;;;;13.02;62.67;101477.41;4940578;28;19915;-81
2021/04/24 05:43:50;;;;;;;;;;;;;;;13.22;62.51;101472.22;4944945;29;19918;-81
2021/04/24 05:46:35;;;;;;;;;;;;;;;13.58;61.54;101479.44;4958553;28;19914;-81
2021/04/24 05:49:19;;;;;;;;;;;;;;;13.90;60.71;101475.53;4941068;29;19914;-84
2021/04/24 05:52:05;;;;;;;;;;;;;;;14.34;58.89;101472.50;4940111;29;19918;-83
2021/04/24 05:54:50;;;;;;;;;;;;;;;14.73;57.31;101473.50;4942816;28;19914;-84
2021/04/24 05:57:35;;;;;;;;;;;;;;;15.01;56.53;101479.38;4956141;28;19922;-82
2021/04/24 06:00:20;;;;;;;;;;;;;;;15.22;55.45;101489.31;4933802;29;19914;-81
2021/04/24 06:03:05;;;;;;;;;;;;;;;15.40;55.14;101479.09;4931904;28;19918;-83
2021/04/24 06:05:50;;;;;;;;;;;;;;;15.51;54.18;101485.00;4944732;28;20386;-82
2021/04/24 06:08:34;;;;;;;;;;;;;;;15.23;54.82;101488.19;4953478;28;20306;-81
2021/04/24 06:11:19;;;;;;;;;;;;;;;15.18;55.65;101488.38;4955727;28;19914;-82
2021/04/24 06:14:03;;;;;;;;;;;;;;;15.56;54.97;101487.59;4942798;29;19914;-82
2021/04/24 06:16:48;;;;;;;;;;;;;;;15.63;54.97;101487.91;4956347;28;19918;-81
2021/04/24 06:19:33;;;;;;;;;;;;;;;15.86;54.44;101491.94;4957458;28;20282;-82
2021/04/24 06:22:19;;;;;;;;;;;;;;;15.46;55.51;101494.22;4943233;29;19915;-82
2021/04/24 06:25:04;;;;;;;;;;;;;;;15.48;55.29;101489.22;4941029;29;19926;-83
2021/04/24 06:27:49;;;;;;;;;;;;;;;15.12;56.38;101484.19;4959261;28;19914;-82
2021/04/24 06:30:34;;;;;;;;;;;;;;;15.24;56.27;101484.31;4943070;29;19918;-83
2021/04/24 06:33:18;;;;;;;;;;;;;;;15.30;56.24;101485.72;4939080;29;19914;-82
2021/04/24 06:36:04;;;;;;;;;;;;;;;14.87;58.30;101482.31;4949986;29;19918;-80
2021/04/24 06:38:48;;;;;;;;;;;;;;;14.79;59.21;101489.41;4956711;29;19914;-82
2021/04/24 06:41:33;;;;;;;;;;;;;;;14.94;58.54;101501.78;4939348;29;19914;-81
2021/04/24 06:44:18;;;;;;;;;;;;;;;14.93;58.71;101494.72;4918690;29;19919;-83
2021/04/24 06:47:03;;;;;;;;;;;;;;;15.11;58.87;101499.03;4938708;29;19915;-82
2021/04/24 06:49:47;;;;;;;;;;;;;;;15.46;56.78;101502.44;4921882;29;19914;-82
2021/04/24 06:52:32;;;;;;;;;;;;;;;15.44;56.42;101501.97;4921275;29;19918;-78
2021/04/24 06:55:17;;;;;;;;;;;;;;;16.34;58.03;101507.13;4926822;29;19915;-78
2021/04/24 06:58:01;;;;;;;;;;;;;;;16.86;54.14;101508.34;4938044;29;19918;-80
2021/04/24 07:00:46;;;;;;;;;;;;;;;17.53;51.15;101502.38;4938510;29;19914;-80
2021/04/24 07:03:31;;;;;;;;;;;;;;;17.42;50.62;101505.94;4928207;29;19915;-79
2021/04/24 07:06:16;;;;;;;;;;;;;;;16.60;51.87;101505.81;4941045;29;20371;-79
2021/04/24 07:09:00;;;;;;;;;;;;;;;16.77;52.00;101502.09;4924500;29;19915;-80
2021/04/24 07:11:45;;;;;;;;;;;;;;;16.76;52.50;101513.44;4938471;29;20343;-81
2021/04/24 07:14:30;;;;;;;;;;;;;;;17.62;50.50;101516.09;4948810;28;19914;-79
2021/04/24 07:17:15;;;;;;;;;;;;;;;17.06;51.38;101518.47;4934564;29;19922;-79
2021/04/24 07:19:59;;;;;;;;;;;;;;;16.85;51.81;101509.47;4949592;28;19918;-79
2021/04/24 07:22:44;;;;;;;;;;;;;;;17.34;50.75;101515.91;4944225;28;20295;-78
2021/04/24 07:25:29;;;;;;;;;;;;;;;17.25;51.48;101514.38;4939292;29;19915;-78
2021/04/24 07:28:15;;;;;;;;;;;;;;;16.97;52.46;101519.69;4942947;29;19919;-79
2021/04/24 07:31:00;;;;;;;;;;;;;;;16.96;51.75;101512.59;4934897;29;19914;-79
2021/04/24 07:33:45;;;;;;;;;;;;;;;17.19;51.77;101504.75;4929973;29;20306;-78
2021/04/24 07:36:31;;;;;;;;;;;;;;;16.65;52.95;101504.81;4938522;28;19918;-77
2021/04/24 07:39:17;;;;;;;;;;;;;;;16.71;53.26;101510.91;4936662;29;19914;-78
2021/04/24 07:42:01;;;;;;;;;;;;;;;16.85;53.07;101506.72;4950406;28;19915;-78
2021/04/24 07:44:47;;;;;;;;;;;;;;;16.90;53.18;101520.25;4952858;28;19914;-78
2021/04/24 07:47:33;;;;;;;;;;;;;;;17.64;50.12;101521.22;4956057;28;19915;-80
2021/04/24 07:50:18;;;;;;;;;;;;;;;17.51;50.20;101523.94;4942559;29;19914;-79
2021/04/24 07:53:04;;;;;;;;;;;;;;;17.44;50.57;101520.16;4923493;29;19914;-80
2021/04/24 07:55:48;;;;;;;;;;;;;;;17.70;49.84;101520.66;4928463;28;19918;-81
2021/04/24 07:58:32;;;;;;;;;;;;;;;18.02;48.67;101526.38;4937302;28;19914;-79
2021/04/24 08:01:17;;;;;;;;;;;;;;;18.19;49.15;101520.63;4943984;28;19919;-80
2021/04/24 08:04:02;;;;;;;;;;;;;;;18.02;48.11;101526.38;4941789;29;19915;-82
2021/04/24 08:06:47;;;;;;;;;;;;;;;17.64;49.63;101530.28;4934106;28;19915;-81
2021/04/24 08:09:31;;;;;;;;;;;;;;;18.20;47.73;101524.97;4938701;29;20279;-81
2021/04/24 08:12:16;;;;;;;;;;;;;;;18.21;48.46;101523.84;4934576;29;20383;-80
2021/04/24 08:15:00;;;;;;;;;;;;;;;18.67;47.45;101520.53;4925943;29;19915;-81
2021/04/24 08:17:45;;;;;;;;;;;;;;;18.99;46.37;101524.19;4932634;29;19922;-81
2021/04/24 08:20:29;;;;;;;;;;;;;;;18.95;46.05;101527.97;4932632;29;19926;-81
2021/04/24 08:23:14;;;;;;;;;;;;;;;18.89;46.05;101523.88;4932872;29;19919;-83
2021/04/24 08:25:59;;;;;;;;;;;;;;;20.29;43.49;101531.38;4932744;29;19914;-80
2021/04/24 08:28:44;;;;;;;;;;;;;;;21.41;40.49;101533.25;4952321;28;19915;-81
2021/04/24 08:31:28;;;;;;;;;;;;;;;19.96;43.74;101534.53;4953041;28;19915;-80
2021/04/24 08:34:13;;;;;;;;;;;;;;;20.56;42.28;101532.38;4926657;29;19915;-81
2021/04/24 08:36:58;;;;;;;;;;;;;;;22.52;38.31;101527.06;4936928;29;19919;-81
2021/04/24 08:39:43;;;;;;;;;;;;;;;23.65;35.83;101530.31;4954090;28;19914;-81
2021/04/24 08:42:27;;;;;;;;;;;;;;;23.99;34.09;101525.38;4929180;29;19914;-81
2021/04/24 08:45:16;;;;;;;;;;;;;;;22.55;37.59;101525.53;4934943;29;19914;-80
2021/04/24 08:48:01;;;;;;;;;;;;;;;23.77;34.89;101520.88;4955095;28;19914;-81
2021/04/24 08:50:46;;;;;;;;;;;;;;;22.29;37.89;101520.03;4931510;29;19914;-81
2021/04/24 08:53:32;;;;;;;;;;;;;;;21.50;39.74;101514.41;4932855;29;19915;-80
2021/04/24 08:56:23;;;;;;;;;;;;;;;26.91;28.79;101516.94;4941168;29;19918;-81
2021/04/24 08:59:08;;;;;;;;;;;;;;;26.94;28.84;101515.31;4931269;29;19914;-80
2021/04/24 09:01:54;;;;;;;;;;;;;;;24.62;32.19;101510.25;4956492;28;19914;-80
2021/04/24 09:04:39;;;;;;;;;;;;;;;23.46;34.50;101513.88;4951808;28;19914;-79
2021/04/24 09:07:24;;;;;;;;;;;;;;;25.35;31.58;101511.63;4950094;29;19914;-80
2021/04/24 09:10:17;;;;;;;;;;;;;;;27.09;27.46;101514.03;4924782;29;20375;-81
2021/04/24 09:13:03;;;;;;;;;;;;;;;27.05;26.24;101511.28;4948319;28;19914;-81
2021/04/24 09:15:48;;;;;;;;;;;;;;;26.94;26.81;101510.53;4938522;29;19914;-81
2021/04/24 09:18:33;;;;;;;;;;;;;;;29.43;22.99;101506.66;4946273;28;19918;-80
2021/04/24 09:21:21;;;;;;;;;;;;;;;31.29;21.49;101505.38;4931908;29;19914;-80
2021/04/24 09:24:06;;;;;;;;;;;;;;;30.86;21.90;101509.13;4937621;29;19915;-78
2021/04/24 09:26:51;;;;;;;;;;;;;;;29.56;24.25;101510.44;4934958;28;19918;-79
2021/04/24 09:29:35;;;;;;;;;;;;;;;27.91;23.90;101501.00;4941914;28;19918;-80
2021/04/24 09:32:21;;;;;;;;;;;;;;;29.30;22.44;101506.47;5004477;23;19922;-74
2021/04/24 09:35:06;;;;;;;;;;;;;;;28.99;23.28;101495.72;5002297;28;19918;-74
2021/04/24 09:38:01;;;;;;;;;;;;;;;29.31;22.68;101496.03;4998271;28;19918;-74
2021/04/24 09:41:01;;;;;;;;;;;;;;;31.29;20.76;101503.31;4989918;28;19914;-71
2021/04/24 09:43:57;;;;;;;;;;;;;;;30.32;20.56;101496.66;4976560;28;19913;-74
2021/04/24 09:46:44;;;;;;;;;;;;;;;28.43;22.38;101496.06;4964887;28;20477;-74
2021/04/24 09:49:29;;;;;;;;;;;;;;;30.01;21.48;101485.63;4978118;28;20301;-75
2021/04/24 09:52:21;;;;;;;;;;;;;;;26.52;23.81;101475.25;4958507;28;19917;-74
2021/04/24 09:55:05;;;;;;;;;;;;;;;27.86;22.90;101476.28;4974442;28;19914;-74
2021/04/24 09:57:50;;;;;;;;;;;;;;;30.29;20.35;101469.44;4980717;28;19918;-74
2021/04/24 10:00:34;;;;;;;;;;;;;;;30.35;19.74;101478.94;4976280;28;20293;-74
2021/04/24 10:03:39;;;;;;;;;;;;;;;29.81;20.66;101469.97;4973447;28;19918;-74
2021/04/24 10:06:24;;;;;;;;;;;;;;;30.23;20.21;101465.53;4977374;28;20298;-75
2021/04/24 10:09:11;;;;;;;;;;;;;;;30.25;19.71;101465.91;4974380;28;19914;-74
2021/04/24 10:11:59;;;;;;;;;;;;;;;29.45;20.29;101465.00;4972814;28;20305;-75
2021/04/24 10:14:50;;;;;;;;;;;;;;;28.05;21.60;101453.31;4977038;28;19913;-72
2021/04/24 10:17:35;;;;;;;;;;;;;;;27.53;22.55;101454.69;4975975;28;19921;-74
2021/04/24 10:20:20;;;;;;;;;;;;;;;28.29;21.05;101456.28;4958308;28;20409;-73
2021/04/24 10:23:06;;;;;;;;;;;;;;;29.50;22.51;101447.69;4975591;28;19914;-75
2021/04/24 10:25:51;;;;;;;;;;;;;;;28.84;23.74;101451.13;4975049;28;19914;-74
2021/04/24 10:28:36;;;;;;;;;;;;;;;27.81;24.67;101445.19;4973391;28;20308;-74
2021/04/24 10:31:21;;;;;;;;;;;;;;;25.91;25.85;101443.97;4976373;28;19914;-74
2021/04/24 10:34:06;;;;;;;;;;;;;;;25.65;26.46;101429.72;4974531;28;19914;-73
2021/04/24 10:36:51;;;;;;;;;;;;;;;24.39;27.99;101429.91;4976818;28;19918;-74
2021/04/24 10:39:37;;;;;;;;;;;;;;;24.34;28.38;101426.72;4980181;28;20465;-74
2021/04/24 10:42:24;;;;;;;;;;;;;;;23.36;30.63;101420.97;4977796;28;19914;-74
2021/04/24 10:45:09;;;;;;;;;;;;;;;25.31;27.05;101413.38;4977070;28;19914;-73
2021/04/24 10:47:55;;;;;;;;;;;;;;;24.63;28.53;101409.75;4980166;28;20405;-73
2021/04/24 10:50:40;;;;;;;;;;;;;;;22.58;31.68;101402.78;4978462;28;19938;-73
2021/04/24 10:53:26;;;;;;;;;;;;;;;25.01;27.99;101399.06;4977345;28;19926;-73
2021/04/24 10:56:28;;;;;;;;;;;;;;;23.78;29.65;101394.66;4981117;28;19914;-73
2021/04/24 10:59:20;;;;;;;;;;;;;;;27.99;24.32;101398.25;4978614;28;20370;-73
2021/04/24 11:02:12;;;;;;;;;;;;;;;27.02;26.05;101394.81;4978412;28;19918;-73
2021/04/24 11:04:57;;;;;;;;;;;;;;;30.96;22.42;101403.34;4978645;28;19914;-73
2021/04/24 11:07:41;;;;;;;;;;;;;;;32.68;19.09;101393.34;4978139;28;19922;-73
2021/04/24 11:10:26;;;;;;;;;;;;;;;35.04;15.88;101393.56;4976125;28;20558;-73
2021/04/24 11:13:12;;;;;;;;;;;;;;;33.37;18.60;101393.50;4980551;28;19914;-72
2021/04/24 11:15:57;;;;;;;;;;;;;;;34.34;18.01;101386.69;4977822;28;19914;-72
2021/04/24 11:18:44;;;;;;;;;;;;;;;34.01;15.57;101382.72;4976132;28;20337;-73
2021/04/24 11:21:32;;;;;;;;;;;;;;;28.23;23.10;101371.22;4979386;28;19914;-75
2021/04/24 11:24:17;;;;;;;;;;;;;;;32.93;18.01;101382.06;4962572;28;19914;-74
2021/04/24 11:27:01;;;;;;;;;;;;;;;34.62;14.44;101379.13;4975994;28;20328;-75
2021/04/24 11:29:46;;;;;;;;;;;;;;;33.38;16.00;101372.50;4982437;28;20386;-76
2021/04/24 11:32:30;;;;;;;;;;;;;;;30.17;19.48;101353.03;4975416;28;19914;-76
2021/04/24 11:35:15;;;;;;;;;;;;;;;32.69;16.46;101352.69;4975812;28;19914;-76
2021/04/24 11:38:00;;;;;;;;;;;;;;;25.07;23.47;101339.84;4979951;28;19922;-76
2021/04/24 11:40:44;;;;;;;;;;;;;;;30.57;16.44;101343.31;4978134;28;19914;-75
2021/04/24 11:43:29;;;;;;;;;;;;;;;33.58;15.69;101350.41;4976174;28;19913;-76
2021/04/24 11:46:31;;;;;;;;;;;;;;;34.52;15.11;101347.22;4963447;28;19914;-76
2021/04/24 11:49:26;;;;;;;;;;;;;;;33.08;18.10;101342.91;4977928;28;20302;-76
2021/04/24 11:52:10;;;;;;;;;;;;;;;32.25;15.63;101338.34;4989695;28;19918;-77
2021/04/24 11:54:55;;;;;;;;;;;;;;;34.40;16.88;101333.97;4981945;28;19914;-73
2021/04/24 11:57:39;;;;;;;;;;;;;;;34.93;16.62;101334.63;4987869;28;19926;-73
2021/04/24 12:00:28;;;;;;;;;;;;;;;38.33;12.03;101340.47;4978024;28;19918;-76
2021/04/24 12:03:13;;;;;;;;;;;;;;;39.21;11.41;101337.34;4988619;28;19914;-76
2021/04/24 12:05:57;;;;;;;;;;;;;;;33.66;13.15;101319.91;4981542;28;19913;-76
2021/04/24 12:08:42;;;;;;;;;;;;;;;32.66;14.67;101320.56;4978324;28;19918;-76
2021/04/24 12:11:26;;;;;;;;;;;;;;;35.28;11.97;101326.69;4977984;28;19917;-76
2021/04/24 12:14:11;;;;;;;;;;;;;;;32.80;13.55;101315.69;4989041;28;19914;-75
2021/04/24 12:16:55;;;;;;;;;;;;;;;34.65;13.42;101316.78;4983597;28;19918;-76
2021/04/24 12:19:43;;;;;;;;;;;;;;;34.36;13.39;101313.56;4979447;28;19918;-75
2021/04/24 12:22:27;;;;;;;;;;;;;;;34.93;12.02;101305.59;4975101;28;20378;-75
2021/04/24 12:25:14;;;;;;;;;;;;;;;38.23;10.37;101319.13;4975691;28;19914;-76
2021/04/24 12:27:59;;;;;;;;;;;;;;;36.85;10.66;101306.69;4978709;28;19914;-75
2021/04/24 12:30:46;;;;;;;;;;;;;;;36.20;11.39;101294.13;4977481;28;19914;-75
2021/04/24 12:33:32;;;;;;;;;;;;;;;37.73;9.85;101301.22;4987714;28;20305;-76
2021/04/24 12:36:16;;;;;;;;;;;;;;;41.21;8.83;101309.59;4998768;28;19914;-76
2021/04/24 12:39:01;;;;;;;;;;;;;;;37.58;9.77;101295.56;4996973;28;20289;-75
2021/04/24 12:41:47;;;;;;;;;;;;;;;33.36;13.16;101279.13;4995270;28;19913;-75
2021/04/24 12:44:32;;;;;;;;;;;;;;;37.40;11.02;101289.22;4998571;28;19913;-76
2021/04/24 12:47:17;;;;;;;;;;;;;;;32.78;13.94;101273.88;4996805;28;19914;-75
2021/04/24 12:50:10;;;;;;;;;;;;;;;32.14;14.58;101267.53;4986565;28;19914;-75
2021/04/24 12:52:56;;;;;;;;;;;;;;;34.53;13.17;101264.03;4987813;28;19914;-75
2021/04/24 12:55:42;;;;;;;;;;;;;;;34.89;12.59;101260.50;4988143;28;19913;-75
2021/04/24 12:58:31;;;;;;;;;;;;;;;33.52;13.88;101259.94;4985635;28;19918;-75
2021/04/24 13:01:17;;;;;;;;;;;;;;;36.64;11.34;101254.69;4987787;28;19913;-79
2021/04/24 13:04:01;;;;;;;;;;;;;;;33.66;14.35;101241.69;4987265;28;19914;-74
2021/04/24 13:06:56;;;;;;;;;;;;;;;34.06;13.39;101246.59;4980510;28;19914;-77
2021/04/24 13:09:41;;;;;;;;;;;;;;;31.12;15.62;101237.59;4985957;28;19914;-80
2021/04/24 13:12:26;;;;;;;;;;;;;;;32.14;14.75;101230.94;4986232;28;19914;-77
2021/04/24 13:15:12;;;;;;;;;;;;;;;34.72;12.05;101231.75;4973712;28;19914;-77
2021/04/24 13:17:56;;;;;;;;;;;;;;;34.83;12.96;101224.84;4978155;28;19917;-74
2021/04/24 13:20:41;;;;;;;;;;;;;;;35.21;11.99;101227.19;4983862;28;19914;-74
2021/04/24 13:23:25;;;;;;;;;;;;;;;34.29;12.58;101215.00;4983804;28;19914;-74
2021/04/24 13:26:19;;;;;;;;;;;;;;;36.06;11.44;101209.84;4989217;28;20261;-79
2021/04/24 13:29:08;;;;;;;;;;;;;;;35.32;12.26;101211.31;4973413;28;19921;-78
2021/04/24 13:31:59;;;;;;;;;;;;;;;35.92;11.35;101202.00;4972520;28;20297;-77
2021/04/24 13:34:45;;;;;;;;;;;;;;;37.56;10.39;101209.31;4965045;28;19914;-78
2021/04/24 13:37:33;;;;;;;;;;;;;;;38.09;9.35;101197.78;4955899;28;19922;-77
2021/04/24 13:40:24;;;;;;;;;;;;;;;37.67;9.90;101195.28;4973953;28;19914;-77
2021/04/24 13:43:09;;;;;;;;;;;;;;;37.99;9.79;101190.63;4969304;28;19914;-77
2021/04/24 13:45:54;;;;;;;;;;;;;;;39.07;9.56;101183.72;4957074;28;19914;-78
2021/04/24 13:48:39;;;;;;;;;;;;;;;36.71;10.23;101182.69;4955689;28;19914;-78
2021/04/24 13:51:24;;;;;;;;;;;;;;;35.83;11.47;101176.59;4957445;28;19914;-85
2021/04/24 13:54:11;;;;;;;;;;;;;;;35.10;12.07;101171.13;4959249;28;19914;-85
2021/04/24 13:56:56;;;;;;;;;;;;;;;33.09;14.13;101153.59;4967759;28;19914;-84
2021/04/24 13:59:40;;;;;;;;;;;;;;;35.29;12.31;101152.09;4999038;28;19917;-84
2021/04/24 14:02:25;;;;;;;;;;;;;;;33.24;14.23;101133.34;4957332;28;19914;-85
2021/04/24 14:05:10;;;;;;;;;;;;;;;32.30;14.91;101147.59;4962676;28;19914;-85
2021/04/24 14:07:54;;;;;;;;;;;;;;;29.84;16.74;101140.97;5000510;28;19921;-84
2021/04/24 14:10:40;;;;;;;;;;;;;;;28.62;18.03;101130.72;4993596;28;19918;-85
2021/04/24 14:13:24;;;;;;;;;;;;;;;28.07;19.31;101129.28;4984594;28;19914;-84